KSYN/SYN METAR and TAF weather

Enter ICAO airport designator
Station Type Date Time Source
KSYN METAR 2022/06/30 13:35 UTC NOAA

KSYN 301335Z AUTO 17006KT 10SM CLR 22/17 A2985 RMK AO2 LTG DSNT W THRU N T02240171


Station Type Date Time Source
KSYN Decoded METAR 2022/06/30 13:35 UTC NOAA

Stanton, Stanton Airfield, MN, United States (KSYN) 44-28-31N 093-00-58W
Jun 30, 2022 - 09:35 AM EDT / 2022.06.30 1335 UTC
Wind: from the S (170 degrees) at 7 MPH (6 KT):0
Visibility: 10 mile(s):0
Sky conditions: clear
Weather: Lightning observed
Temperature: 72.3 F (22.4 C)
Dew Point: 62.8 F (17.1 C)
Relative Humidity: 71%
Pressure (altimeter): 29.85 in. Hg (1010 hPa)
ob: KSYN 301335Z AUTO 17006KT 10SM CLR 22/17 A2985 RMK AO2 LTG DSNT W THRU N T02240171
cycle: 13

Station Type Date Time Source
KSYN TAF UTC NOAA

Error!

Example: see airport list